Time;durP1;ratioP1;P1;durP2;ratioP2;P2;SDS_P1;SDS_P2;PMS_P1;PMS_P2;Temp;Humidity;BMP_temperature;BMP_pressure;BME280_temperature;BME280_humidity;BME280_pressure;Samples;Min_cycle;Max_cycle;Signal;HPM_P1;HPM_P2
2023/10/27 00:40:13;;;;;;;4.13;2.03;;;2.00;99.90;;;;;;1869662;75;27139;-90
2023/10/27 01:36:07;;;;;;;3.10;2.23;;;2.00;99.90;;;;;;1936517;72;26872;-90
2023/10/27 01:56:34;;;;;;;3.10;2.50;;;2.10;99.90;;;;;;1970963;70;26359;-89
2023/10/27 02:27:13;;;;;;;4.63;2.17;;;2.00;99.90;;;;;;1942907;72;27557;-91
2023/10/27 02:30:02;;;;;;;5.80;2.50;;;2.00;99.90;;;;;;1923968;73;25212;-91
2023/10/27 02:32:50;;;;;;;4.20;2.10;;;1.90;99.90;;;;;;1927467;73;25757;-90
2023/10/27 02:35:39;;;;;;;3.97;1.97;;;1.90;99.90;;;;;;1933416;73;25255;-91
2023/10/27 02:38:27;;;;;;;3.57;2.07;;;1.90;99.90;;;;;;1936036;72;25140;-91
2023/10/27 02:41:16;;;;;;;2.03;1.93;;;1.90;99.90;;;;;;1894850;74;25224;-91
2023/10/27 02:44:05;;;;;;;4.83;2.07;;;1.90;99.90;;;;;;1870829;76;25325;-91
2023/10/27 02:46:54;;;;;;;3.97;2.30;;;1.80;99.90;;;;;;1847156;77;25223;-91
2023/10/27 02:53:06;;;;;;;6.47;2.00;;;1.90;99.90;;;;;;1982522;71;26301;-91
2023/10/27 02:55:55;;;;;;;2.50;2.00;;;1.90;99.90;;;;;;2019748;69;25743;-91
2023/10/27 02:58:44;;;;;;;5.27;2.30;;;1.90;99.90;;;;;;2020590;69;25769;-91
2023/10/27 03:01:33;;;;;;;4.57;1.90;;;2.00;99.90;;;;;;2007644;70;25687;-90
2023/10/27 03:04:21;;;;;;;3.13;1.87;;;2.00;99.90;;;;;;2006916;69;25251;-90
2023/10/27 03:07:09;;;;;;;3.97;2.30;;;1.90;99.90;;;;;;2016749;70;25135;-91
2023/10/27 03:09:58;;;;;;;3.53;2.03;;;1.90;99.90;;;;;;2011302;69;25694;-91
2023/10/27 03:12:47;;;;;;;4.33;2.00;;;2.00;99.90;;;;;;2017412;69;25200;-91
2023/10/27 03:15:36;;;;;;;2.67;1.90;;;2.00;99.90;;;;;;2005351;70;25860;-91
2023/10/27 03:18:25;;;;;;;4.23;2.00;;;1.90;99.90;;;;;;1995526;69;25269;-91
2023/10/27 03:21:17;;;;;;;2.90;2.20;;;1.90;99.90;;;;;;2021006;69;25723;-90
2023/10/27 03:38:14;;;;;;;2.67;2.10;;;2.00;99.90;;;;;;1888104;75;27464;-89
2023/10/27 04:00:29;;;;;;;3.20;1.87;;;1.90;99.90;;;;;;2010630;69;28080;-89
2023/10/27 04:03:18;;;;;;;3.37;2.00;;;2.00;99.90;;;;;;1996807;70;25159;-89
2023/10/27 04:10:51;;;;;;;3.07;2.17;;;2.00;99.90;;;;;;1980821;71;26994;-89
2023/10/27 04:13:39;;;;;;;3.97;2.17;;;2.00;99.90;;;;;;1933782;72;25245;-91
2023/10/27 04:16:29;;;;;;;3.20;2.00;;;1.90;99.90;;;;;;2014136;70;25660;-91
2023/10/27 04:19:18;;;;;;;5.97;2.27;;;1.90;99.90;;;;;;1997985;70;25137;-91
2023/10/27 04:22:08;;;;;;;3.20;2.00;;;1.80;99.90;;;;;;2008645;69;25139;-91
2023/10/27 04:24:57;;;;;;;5.27;2.10;;;1.80;99.90;;;;;;2004482;70;25461;-91
2023/10/27 04:27:45;;;;;;;3.37;2.27;;;1.80;99.90;;;;;;2020436;69;25131;-91
2023/10/27 04:30:36;;;;;;;3.50;1.90;;;1.90;99.90;;;;;;2002897;70;25194;-89
2023/10/27 04:33:24;;;;;;;4.33;1.90;;;1.90;99.90;;;;;;2007037;70;25575;-90
2023/10/27 04:39:05;;;;;;;3.00;2.17;;;2.00;99.90;;;;;;1942507;72;27042;-91
2023/10/27 04:41:53;;;;;;;4.70;1.90;;;1.90;99.90;;;;;;1925191;73;25687;-91
2023/10/27 04:44:42;;;;;;;2.53;1.60;;;1.90;99.90;;;;;;1915271;73;25197;-90
2023/10/27 04:47:31;;;;;;;2.73;2.13;;;1.90;99.90;;;;;;1906911;74;25679;-91
2023/10/27 04:50:20;;;;;;;4.73;2.23;;;1.90;99.90;;;;;;1909230;74;25169;-91
2023/10/27 04:53:09;;;;;;;4.43;2.10;;;1.90;99.90;;;;;;1912239;73;25207;-91
2023/10/27 04:55:57;;;;;;;5.73;2.00;;;1.90;99.90;;;;;;1909438;74;25204;-91
2023/10/27 04:58:48;;;;;;;3.30;2.03;;;1.90;99.90;;;;;;1915953;73;25274;-91
2023/10/27 05:01:37;;;;;;;5.73;2.37;;;1.90;99.90;;;;;;1914799;74;25297;-90
2023/10/27 05:04:26;;;;;;;6.13;1.90;;;1.90;99.90;;;;;;1903525;73;25712;-91
2023/10/27 05:07:15;;;;;;;3.30;1.70;;;1.90;99.90;;;;;;1911953;74;25376;-90
2023/10/27 05:10:07;;;;;;;3.10;2.10;;;1.90;99.90;;;;;;1915023;73;25267;-91
2023/10/27 05:12:56;;;;;;;2.17;1.70;;;1.80;99.90;;;;;;1909278;73;25449;-91
2023/10/27 05:15:54;;;;;;;4.47;2.00;;;1.80;99.90;;;;;;1903210;74;25224;-91
2023/10/27 05:21:26;;;;;;;3.97;2.03;;;1.90;99.90;;;;;;1973467;71;27497;-89
2023/10/27 05:37:43;;;;;;;4.43;2.30;;;1.80;99.90;;;;;;1870355;73;27843;-91
2023/10/27 05:43:20;;;;;;;5.70;1.80;;;2.00;99.90;;;;;;1920998;72;27577;-90
2023/10/27 05:48:49;;;;;;;2.83;1.50;;;1.90;99.90;;;;;;1917547;72;27091;-88
2023/10/27 05:51:38;;;;;;;2.90;2.07;;;1.90;99.90;;;;;;1911039;75;25776;-90
2023/10/27 05:54:26;;;;;;;2.60;2.03;;;1.90;99.90;;;;;;1903173;75;25219;-89
2023/10/27 05:57:15;;;;;;;5.03;2.10;;;1.90;99.90;;;;;;1904257;74;25179;-89
2023/10/27 06:00:04;;;;;;;3.40;2.10;;;1.90;99.90;;;;;;1901375;73;25239;-90
2023/10/27 06:02:53;;;;;;;3.17;2.07;;;1.80;99.90;;;;;;1908057;73;25247;-90
2023/10/27 06:05:42;;;;;;;1.93;1.80;;;1.80;99.90;;;;;;1896606;74;25229;-90
2023/10/27 06:08:32;;;;;;;2.83;1.87;;;1.90;99.90;;;;;;1888614;74;25247;-90
2023/10/27 06:11:20;;;;;;;4.40;2.40;;;1.90;99.90;;;;;;1872385;75;25238;-90
2023/10/27 06:14:09;;;;;;;6.10;1.97;;;1.80;99.90;;;;;;1909973;73;25246;-90
2023/10/27 06:16:58;;;;;;;2.07;1.87;;;1.80;99.90;;;;;;1907693;75;25285;-90
2023/10/27 06:19:46;;;;;;;3.67;1.80;;;1.90;99.90;;;;;;1910536;75;25669;-90
2023/10/27 06:22:35;;;;;;;4.20;1.70;;;1.90;99.90;;;;;;1901351;75;25227;-90
2023/10/27 06:39:51;;;;;;;3.20;2.10;;;1.80;99.90;;;;;;1950709;71;26425;-90
2023/10/27 06:45:33;;;;;;;3.10;2.50;;;1.90;99.90;;;;;;1952815;72;27036;-89
2023/10/27 06:48:22;;;;;;;2.67;2.07;;;2.00;99.90;;;;;;1930031;72;25162;-91
2023/10/27 06:51:10;;;;;;;4.47;2.47;;;2.00;99.90;;;;;;1945867;72;25223;-90
2023/10/27 06:53:59;;;;;;;2.53;1.90;;;2.10;99.90;;;;;;1921359;72;25145;-89
2023/10/27 06:56:50;;;;;;;4.73;2.10;;;2.00;99.90;;;;;;1926784;73;25160;-92
2023/10/27 06:59:39;;;;;;;6.90;2.50;;;2.00;99.90;;;;;;1921758;72;25643;-89
2023/10/27 07:02:27;;;;;;;3.70;2.23;;;2.00;99.90;;;;;;1922254;72;25715;-91
2023/10/27 07:05:17;;;;;;;2.20;1.87;;;2.10;99.90;;;;;;1935990;73;25216;-91
2023/10/27 07:08:06;;;;;;;2.80;2.07;;;2.10;99.90;;;;;;1931342;72;25217;-89
2023/10/27 07:10:57;;;;;;;9.23;2.20;;;2.00;99.90;;;;;;1940493;72;25276;-91
2023/10/27 07:13:45;;;;;;;3.83;2.10;;;2.00;99.90;;;;;;1888776;73;25372;-91
2023/10/27 07:16:34;;;;;;;2.10;2.00;;;2.10;99.90;;;;;;1865846;75;25260;-91
2023/10/27 07:19:25;;;;;;;3.00;1.77;;;2.00;99.90;;;;;;1874053;75;25255;-91
2023/10/27 07:22:16;;;;;;;2.57;1.90;;;2.00;99.90;;;;;;1869554;74;25292;-90
2023/10/27 07:25:04;;;;;;;1.93;1.70;;;2.00;99.90;;;;;;1896873;73;25293;-89
2023/10/27 07:27:55;;;;;;;3.17;1.83;;;2.00;99.90;;;;;;1902405;74;25715;-91
2023/10/27 07:48:56;;;;;;;2.60;2.10;;;2.30;99.90;;;;;;1951919;72;27391;-89
2023/10/27 07:51:45;;;;;;;4.00;2.50;;;2.20;99.90;;;;;;1966280;72;25198;-91
2023/10/27 07:54:34;;;;;;;3.33;2.20;;;2.20;99.90;;;;;;1981178;71;25184;-91
2023/10/27 07:57:23;;;;;;;3.63;2.00;;;2.20;99.90;;;;;;1969108;71;25267;-91
2023/10/27 08:40:53;;;;;;;6.43;2.40;;;2.50;99.90;;;;;;1927999;73;26377;-90
2023/10/27 08:46:32;;;;;;;2.20;1.90;;;2.60;99.90;;;;;;1940927;72;27069;-91
2023/10/27 08:52:02;;;;;;;3.03;2.03;;;2.50;99.90;;;;;;1928668;72;27148;-89
2023/10/27 08:57:34;;;;;;;2.40;1.63;;;2.50;99.90;;;;;;1932628;72;26898;-89
2023/10/27 09:00:23;;;;;;;4.20;2.03;;;2.40;99.90;;;;;;1908160;75;25215;-89
2023/10/27 09:03:18;;;;;;;1.70;1.60;;;2.30;99.90;;;;;;1915690;73;25251;-90
2023/10/27 09:06:07;;;;;;;2.97;1.93;;;2.40;99.90;;;;;;1906919;73;25368;-90
2023/10/27 09:08:55;;;;;;;3.50;2.00;;;2.40;99.90;;;;;;1887295;75;25320;-90
2023/10/27 09:11:47;;;;;;;4.60;2.07;;;2.50;99.90;;;;;;1917475;73;25321;-90
2023/10/27 09:14:36;;;;;;;4.33;2.13;;;2.40;99.90;;;;;;1905148;73;25303;-89
2023/10/27 09:17:24;;;;;;;3.17;1.90;;;2.30;99.90;;;;;;1899631;73;25207;-90
2023/10/27 09:20:14;;;;;;;4.00;2.03;;;2.30;99.90;;;;;;1891180;73;25291;-90
2023/10/27 09:23:04;;;;;;;3.77;2.30;;;2.40;99.90;;;;;;1899906;73;25189;-90
2023/10/27 09:29:03;;;;;;;2.00;1.80;;;2.50;99.90;;;;;;1951632;72;27023;-91
2023/10/27 09:31:52;;;;;;;4.57;1.83;;;2.40;99.90;;;;;;1938787;73;25354;-91
2023/10/27 09:34:42;;;;;;;2.70;1.90;;;2.50;99.90;;;;;;1943199;73;25262;-91
2023/10/27 09:37:32;;;;;;;4.87;2.17;;;2.50;99.90;;;;;;1929677;72;25275;-91
2023/10/27 09:40:21;;;;;;;2.73;2.00;;;2.50;99.90;;;;;;1935421;73;25265;-91
2023/10/27 09:43:12;;;;;;;2.40;2.10;;;2.50;99.90;;;;;;1927904;73;25313;-91
2023/10/27 09:48:58;;;;;;;5.23;1.97;;;2.60;99.90;;;;;;1946162;72;27519;-92
2023/10/27 09:51:47;;;;;;;1.87;1.43;;;2.50;99.90;;;;;;1916292;73;25177;-91
2023/10/27 09:54:36;;;;;;;3.37;2.37;;;2.50;99.90;;;;;;1923492;73;25270;-91
2023/10/27 09:57:26;;;;;;;4.87;3.00;;;2.60;99.90;;;;;;1920260;73;25218;-91
2023/10/27 10:00:18;;;;;;;3.93;1.90;;;2.60;99.90;;;;;;1923914;73;25257;-91
2023/10/27 10:03:07;;;;;;;9.53;2.80;;;2.60;99.90;;;;;;1926665;73;25207;-90
2023/10/27 10:06:15;;;;;;;4.77;2.13;;;2.80;99.90;;;;;;1936180;73;25287;-90
2023/10/27 10:09:14;;;;;;;3.37;2.13;;;2.80;99.90;;;;;;1916865;73;25230;-90
2023/10/27 10:12:02;;;;;;;3.87;2.10;;;2.80;99.90;;;;;;1919893;73;25242;-90
2023/10/27 10:14:51;;;;;;;13.83;4.13;;;2.90;99.90;;;;;;1919009;73;25247;-90
2023/10/27 10:17:41;;;;;;;3.20;2.50;;;3.00;99.90;;;;;;1916701;73;25203;-90
2023/10/27 10:20:57;;;;;;;4.13;2.30;;;2.90;99.90;;;;;;1917132;73;25246;-90
2023/10/27 10:24:22;;;;;;;2.20;1.60;;;2.90;99.90;;;;;;1924650;73;25232;-92
2023/10/27 10:27:13;;;;;;;1.83;1.73;;;2.90;99.90;;;;;;1916593;73;25740;-92
2023/10/27 10:30:20;;;;;;;3.57;2.03;;;2.80;99.90;;;;;;1921208;73;25238;-91
2023/10/27 10:33:21;;;;;;;6.23;1.90;;;2.80;99.90;;;;;;1916375;73;25237;-90
2023/10/27 10:36:27;;;;;;;4.90;1.93;;;3.00;99.90;;;;;;1917784;73;25267;-89
2023/10/27 10:39:16;;;;;;;2.60;1.63;;;3.00;99.90;;;;;;1916026;73;25250;-89
2023/10/27 10:42:05;;;;;;;3.73;2.17;;;3.00;99.90;;;;;;1915432;73;25293;-90
2023/10/27 10:44:56;;;;;;;3.43;1.80;;;3.00;99.90;;;;;;1891740;75;25349;-90
2023/10/27 10:50:37;;;;;;;3.73;2.00;;;3.00;99.90;;;;;;1961587;72;27062;-92
2023/10/27 10:53:26;;;;;;;3.00;1.87;;;3.00;99.90;;;;;;1919848;73;25246;-91
2023/10/27 10:56:16;;;;;;;2.27;2.00;;;3.00;99.90;;;;;;1925134;73;25759;-91
2023/10/27 10:59:04;;;;;;;4.13;1.70;;;2.90;99.90;;;;;;1933646;73;25165;-90
2023/10/27 11:04:42;;;;;;;4.80;2.20;;;2.90;99.90;;;;;;1954618;72;26959;-92
2023/10/27 11:22:47;;;;;;;5.33;2.00;;;2.90;99.90;;;;;;1985109;71;26786;-91
2023/10/27 11:25:36;;;;;;;2.30;2.07;;;3.10;99.90;;;;;;2022436;69;25246;-91
2023/10/27 11:31:12;;;;;;;2.53;1.90;;;3.10;99.90;;;;;;1940424;73;27543;-91
2023/10/27 11:34:03;;;;;;;4.23;1.83;;;3.00;99.90;;;;;;1920474;74;25331;-91
2023/10/27 11:37:02;;;;;;;3.67;2.07;;;3.10;99.90;;;;;;1942044;73;25230;-91
2023/10/27 11:39:50;;;;;;;2.13;1.80;;;3.10;99.90;;;;;;1926556;73;25216;-91
2023/10/27 11:42:38;;;;;;;2.87;1.80;;;3.20;99.90;;;;;;1941505;72;25389;-91
2023/10/27 11:45:26;;;;;;;1.57;1.47;;;3.30;99.90;;;;;;1889040;74;25246;-91
2023/10/27 11:48:15;;;;;;;2.17;1.90;;;3.20;99.90;;;;;;1879843;74;26672;-91
2023/10/27 11:51:05;;;;;;;2.80;1.67;;;3.10;99.90;;;;;;1894049;74;25675;-89
2023/10/27 11:53:54;;;;;;;5.10;1.77;;;3.10;99.90;;;;;;1859716;76;25654;-89
2023/10/27 11:56:43;;;;;;;3.57;1.70;;;3.20;99.90;;;;;;1865665;76;25300;-91
2023/10/27 11:59:31;;;;;;;4.07;2.53;;;3.40;99.90;;;;;;1867209;75;25669;-89
2023/10/27 12:02:20;;;;;;;1.97;1.70;;;3.40;99.90;;;;;;1847070;75;25380;-90
2023/10/27 12:07:53;;;;;;;3.53;2.00;;;3.40;99.90;;;;;;1938335;72;27626;-91
2023/10/27 12:13:35;;;;;;;2.10;1.70;;;3.30;99.90;;;;;;1942589;72;27590;-91
2023/10/27 12:16:23;;;;;;;2.93;1.50;;;3.30;99.90;;;;;;1924347;73;25382;-91
2023/10/27 12:19:13;;;;;;;2.07;1.73;;;3.20;99.90;;;;;;1929324;73;25227;-91
2023/10/27 12:22:03;;;;;;;1.63;1.50;;;3.20;99.90;;;;;;1926699;73;25748;-91
2023/10/27 12:24:53;;;;;;;2.27;1.33;;;3.10;99.90;;;;;;1936837;72;25232;-91
2023/10/27 12:27:42;;;;;;;2.70;1.60;;;3.10;99.90;;;;;;1927616;73;25327;-91
2023/10/27 12:30:33;;;;;;;1.67;1.57;;;3.10;99.90;;;;;;1905453;74;25731;-91
2023/10/27 12:33:21;;;;;;;3.10;1.90;;;3.10;99.90;;;;;;1927209;73;25803;-91
2023/10/27 12:36:11;;;;;;;2.10;1.80;;;3.10;99.90;;;;;;1895026;75;25282;-91
2023/10/27 12:39:01;;;;;;;1.83;1.23;;;3.10;99.90;;;;;;1880257;75;25188;-91
2023/10/27 12:41:51;;;;;;;1.80;1.60;;;3.00;99.90;;;;;;1861176;76;25205;-91
2023/10/27 12:44:40;;;;;;;3.03;1.33;;;3.00;99.90;;;;;;1897855;74;25223;-91
2023/10/27 12:51:17;;;;;;;4.27;1.90;;;3.00;99.90;;;;;;1995946;71;26464;-89
2023/10/27 12:54:08;;;;;;;2.03;1.50;;;3.00;99.90;;;;;;2028350;69;25693;-91
2023/10/27 12:56:57;;;;;;;2.80;1.83;;;3.00;99.90;;;;;;2022916;69;25202;-87
2023/10/27 12:59:46;;;;;;;2.83;1.43;;;3.00;99.90;;;;;;2022309;69;25225;-91
2023/10/27 13:02:34;;;;;;;2.73;1.70;;;3.00;99.90;;;;;;2011527;69;25205;-91
2023/10/27 13:05:23;;;;;;;2.37;1.67;;;3.00;99.90;;;;;;2013803;70;25747;-91
2023/10/27 13:08:12;;;;;;;2.20;1.70;;;3.00;99.90;;;;;;2017916;69;25279;-91
2023/10/27 13:11:04;;;;;;;1.67;1.43;;;2.90;99.90;;;;;;2016848;69;25285;-89
2023/10/27 13:13:53;;;;;;;4.87;1.90;;;3.00;99.90;;;;;;2022276;69;25280;-91
2023/10/27 13:16:42;;;;;;;4.73;1.73;;;3.00;99.90;;;;;;2017114;70;25199;-91
2023/10/27 13:19:33;;;;;;;6.07;2.03;;;2.90;99.90;;;;;;2020277;69;25210;-91
2023/10/27 13:22:25;;;;;;;2.07;1.53;;;3.00;99.90;;;;;;2013737;69;25239;-89
2023/10/27 13:25:11;;;;;;;2.33;1.80;;;2.90;99.90;;;;;;2027632;69;25291;-91
2023/10/27 13:28:00;;;;;;;3.13;1.90;;;2.90;99.90;;;;;;2027011;69;25226;-89
2023/10/27 13:30:49;;;;;;;2.50;1.80;;;3.00;99.90;;;;;;2032995;69;25722;-91
2023/10/27 13:33:37;;;;;;;1.97;1.70;;;2.90;99.90;;;;;;2028521;69;25180;-90
2023/10/27 13:36:27;;;;;;;1.50;1.40;;;2.80;99.90;;;;;;2031665;69;25615;-91
2023/10/27 13:39:16;;;;;;;1.40;1.20;;;2.90;99.90;;;;;;2012299;70;25196;-91
2023/10/27 13:42:05;;;;;;;2.97;2.03;;;2.80;99.90;;;;;;2016246;69;25302;-91
2023/10/27 13:47:40;;;;;;;3.63;1.60;;;2.70;99.90;;;;;;1950540;72;27619;-91
2023/10/27 13:50:28;;;;;;;1.50;1.40;;;2.70;99.90;;;;;;1921262;73;25295;-91
2023/10/27 13:53:18;;;;;;;5.33;2.10;;;2.60;99.90;;;;;;1923986;74;25737;-91
2023/10/27 13:56:12;;;;;;;2.87;1.60;;;2.60;99.90;;;;;;1922131;73;25681;-91
2023/10/27 13:58:59;;;;;;;2.53;1.53;;;2.60;99.90;;;;;;1923639;73;25159;-91
2023/10/27 14:04:35;;;;;;;6.03;1.90;;;2.60;99.90;;;;;;1961294;72;27030;-91
2023/10/27 14:07:23;;;;;;;2.90;1.90;;;2.60;99.90;;;;;;1949230;72;25892;-91
2023/10/27 14:10:12;;;;;;;1.67;1.50;;;2.60;99.90;;;;;;1951362;72;25227;-91
2023/10/27 14:13:01;;;;;;;2.70;1.90;;;2.60;99.90;;;;;;1955950;72;25325;-90
2023/10/27 14:15:51;;;;;;;2.97;1.83;;;2.60;99.90;;;;;;1950878;72;25193;-90
2023/10/27 14:18:41;;;;;;;2.87;2.17;;;2.60;99.90;;;;;;1956196;72;25195;-90
2023/10/27 14:21:29;;;;;;;3.20;1.87;;;2.60;99.90;;;;;;1948478;72;25810;-90
2023/10/27 14:24:19;;;;;;;3.87;2.40;;;2.70;99.90;;;;;;1952304;72;25320;-90
2023/10/27 14:27:08;;;;;;;15.17;7.40;;;2.70;99.90;;;;;;1959388;72;25253;-90
2023/10/27 14:29:57;;;;;;;3.67;1.93;;;2.70;99.90;;;;;;1943588;72;25254;-90
2023/10/27 14:32:46;;;;;;;3.57;1.93;;;2.60;99.90;;;;;;1934484;72;25247;-90
2023/10/27 14:35:36;;;;;;;3.60;2.50;;;2.60;99.90;;;;;;1945541;72;25287;-91
2023/10/27 14:38:24;;;;;;;3.90;2.80;;;2.60;99.90;;;;;;1944318;72;25251;-90
2023/10/27 14:44:17;;;;;;;12.67;5.87;;;2.60;99.90;;;;;;1943834;72;27107;-91
2023/10/27 14:49:52;;;;;;;5.63;3.67;;;2.60;99.90;;;;;;1942035;72;27076;-89
2023/10/27 14:52:42;;;;;;;42.97;21.17;;;2.50;99.90;;;;;;1890088;73;25246;-89
2023/10/27 14:55:32;;;;;;;7.20;4.10;;;2.50;99.90;;;;;;1896759;73;26965;-91
2023/10/27 15:01:04;;;;;;;2.23;1.80;;;2.40;99.90;;;;;;1943773;71;26910;-90
2023/10/27 15:03:53;;;;;;;4.33;2.17;;;2.40;99.90;;;;;;1941254;73;25157;-90
2023/10/27 15:06:41;;;;;;;3.77;1.77;;;2.40;99.90;;;;;;1945870;73;25229;-90
2023/10/27 15:09:32;;;;;;;8.70;4.13;;;2.40;99.90;;;;;;1941048;72;25882;-90
2023/10/27 15:12:19;;;;;;;4.73;2.87;;;2.30;99.90;;;;;;1946457;73;25201;-89
2023/10/27 15:15:10;;;;;;;2.63;1.90;;;2.30;99.90;;;;;;1893022;74;25209;-88
2023/10/27 15:17:59;;;;;;;3.43;2.20;;;2.30;99.90;;;;;;1868721;76;25294;-89
2023/10/27 15:20:58;;;;;;;3.93;2.60;;;2.40;99.90;;;;;;1899450;73;25398;-91
2023/10/27 15:23:48;;;;;;;104.70;22.60;;;2.40;99.90;;;;;;1885115;75;25161;-90
2023/10/27 15:26:37;;;;;;;13.60;4.60;;;2.30;99.90;;;;;;1897399;75;25280;-89
2023/10/27 15:32:15;;;;;;;2.77;2.40;;;2.30;99.90;;;;;;1915718;74;27242;-90
2023/10/27 16:01:36;;;;;;;5.20;2.80;;;2.30;99.90;;;;;;1905492;74;27136;-88
2023/10/27 16:04:24;;;;;;;4.87;2.30;;;2.30;99.90;;;;;;1859118;75;25377;-88
2023/10/27 16:07:14;;;;;;;10.37;5.67;;;2.40;99.90;;;;;;1856103;75;25253;-88
2023/10/27 16:10:03;;;;;;;4.23;2.67;;;2.50;99.90;;;;;;1858644;75;25257;-90
2023/10/27 16:12:52;;;;;;;3.93;2.10;;;2.40;99.90;;;;;;1854514;76;25184;-88
2023/10/27 16:15:41;;;;;;;14.17;5.73;;;2.40;99.90;;;;;;1856854;76;25235;-88
2023/10/27 16:18:30;;;;;;;23.40;12.53;;;2.40;99.90;;;;;;1856894;75;25226;-90
2023/10/27 16:21:21;;;;;;;2.80;2.33;;;2.30;99.90;;;;;;1865514;75;25241;-88
2023/10/27 16:24:10;;;;;;;7.13;4.17;;;2.30;99.90;;;;;;1868717;75;25204;-90
2023/10/27 16:26:59;;;;;;;5.67;2.63;;;2.30;99.90;;;;;;1858931;75;25288;-90
2023/10/27 16:29:47;;;;;;;28.00;13.13;;;2.30;99.90;;;;;;1854806;75;25232;-90
2023/10/27 16:32:36;;;;;;;31.50;12.13;;;2.20;99.90;;;;;;1862972;75;25279;-90
2023/10/27 16:35:24;;;;;;;13.10;5.67;;;2.20;99.90;;;;;;1867525;76;25863;-90
2023/10/27 16:38:13;;;;;;;12.80;5.10;;;2.30;99.90;;;;;;1858052;75;25768;-90
2023/10/27 16:43:52;;;;;;;13.43;5.87;;;2.20;99.90;;;;;;1924578;72;27146;-88
2023/10/27 16:46:40;;;;;;;16.73;6.57;;;2.20;99.90;;;;;;1876960;75;25216;-90
2023/10/27 16:49:29;;;;;;;9.60;4.60;;;2.30;99.90;;;;;;1808622;78;25272;-90
2023/10/27 16:52:17;;;;;;;13.53;6.73;;;2.30;99.90;;;;;;1925394;73;25765;-90
2023/10/27 16:55:08;;;;;;;9.47;5.30;;;2.30;99.90;;;;;;1917406;73;25376;-92
2023/10/27 17:00:50;;;;;;;4.50;2.50;;;2.20;99.90;;;;;;1945144;72;27608;-89
2023/10/27 17:03:38;;;;;;;13.17;6.20;;;2.30;99.90;;;;;;1926068;73;25235;-89
2023/10/27 17:06:27;;;;;;;5.90;2.83;;;2.40;99.90;;;;;;1924765;73;25701;-89
2023/10/27 17:09:23;;;;;;;6.70;3.50;;;2.40;99.90;;;;;;1922332;73;25254;-89
2023/10/27 17:12:13;;;;;;;9.40;2.50;;;2.30;99.90;;;;;;1872216;75;25154;-92
2023/10/27 17:15:02;;;;;;;5.93;2.70;;;2.20;99.90;;;;;;1928532;73;25287;-92
2023/10/27 17:17:51;;;;;;;2.83;2.10;;;2.30;99.90;;;;;;1925444;73;25249;-91
2023/10/27 17:20:40;;;;;;;5.57;2.27;;;2.20;99.90;;;;;;1940481;73;25613;-91
2023/10/27 17:29:15;;;;;;;3.97;2.50;;;2.20;99.90;;;;;;1972415;71;26278;-91
2023/10/27 17:32:06;;;;;;;5.50;2.70;;;2.20;99.90;;;;;;1953527;73;25165;-91
2023/10/27 17:34:56;;;;;;;3.13;2.07;;;2.20;99.90;;;;;;1927622;73;25190;-91
2023/10/27 17:41:05;;;;;;;3.87;2.10;;;2.20;99.90;;;;;;1990480;71;28202;-92
2023/10/27 17:43:53;;;;;;;3.73;2.50;;;2.20;99.90;;;;;;1934100;72;25306;-92
2023/10/27 17:46:42;;;;;;;3.33;1.80;;;2.20;99.90;;;;;;1956633;72;25232;-91
2023/10/27 17:49:31;;;;;;;6.00;2.27;;;2.10;99.90;;;;;;1950483;72;25234;-90
2023/10/27 17:52:20;;;;;;;2.83;2.00;;;2.20;99.90;;;;;;1931997;73;25141;-91
2023/10/27 17:55:10;;;;;;;3.97;1.80;;;2.10;99.90;;;;;;1916085;73;25294;-91
2023/10/27 17:57:59;;;;;;;6.93;2.17;;;2.20;99.90;;;;;;1945884;72;25317;-91
2023/10/27 18:00:47;;;;;;;2.53;2.30;;;2.10;99.90;;;;;;1912373;73;25172;-91
2023/10/27 18:03:37;;;;;;;2.93;2.10;;;2.10;99.90;;;;;;1943025;73;25208;-91
2023/10/27 18:06:26;;;;;;;3.90;2.33;;;2.10;99.90;;;;;;1950403;72;25210;-92
2023/10/27 18:09:15;;;;;;;4.20;2.23;;;2.00;99.90;;;;;;1890796;74;25175;-91
2023/10/27 18:12:05;;;;;;;3.80;2.10;;;2.00;99.90;;;;;;1949271;72;25218;-91
2023/10/27 18:14:54;;;;;;;4.87;2.37;;;2.10;99.90;;;;;;1923711;73;25275;-91
2023/10/27 18:20:29;;;;;;;6.13;3.20;;;2.10;99.90;;;;;;1870997;76;27129;-92
2023/10/27 18:26:04;;;;;;;4.77;2.53;;;2.00;99.90;;;;;;1932071;72;27165;-92
2023/10/27 18:28:54;;;;;;;3.53;2.10;;;2.10;99.90;;;;;;1901157;73;25186;-92
2023/10/27 18:31:43;;;;;;;6.67;2.73;;;2.10;99.90;;;;;;1895097;73;25268;-92
2023/10/27 18:34:31;;;;;;;3.60;2.30;;;2.00;99.90;;;;;;1904997;73;25752;-92
2023/10/27 18:37:19;;;;;;;3.53;1.70;;;2.00;99.90;;;;;;1912415;73;25195;-91
2023/10/27 18:40:12;;;;;;;5.90;2.23;;;2.00;99.90;;;;;;1897143;73;25723;-89
2023/10/27 18:43:01;;;;;;;5.33;1.83;;;2.10;99.90;;;;;;1925194;72;26523;-92
2023/10/27 18:45:57;;;;;;;6.97;2.10;;;2.10;99.90;;;;;;1928528;72;25282;-91
2023/10/27 18:48:46;;;;;;;7.20;2.17;;;2.00;99.90;;;;;;1930095;73;25936;-92
2023/10/27 18:51:37;;;;;;;5.83;2.10;;;2.00;99.90;;;;;;1930725;73;25208;-92
2023/10/27 18:54:26;;;;;;;5.13;2.20;;;2.10;99.90;;;;;;1925123;73;25716;-90
2023/10/27 18:57:15;;;;;;;2.37;2.00;;;2.00;99.90;;;;;;1923657;73;25162;-90
2023/10/27 19:00:04;;;;;;;3.53;2.13;;;2.00;99.90;;;;;;1920970;72;25699;-90
2023/10/27 19:05:45;;;;;;;6.00;2.50;;;2.00;99.90;;;;;;1945842;72;27088;-92
2023/10/27 19:11:26;;;;;;;3.77;2.10;;;2.10;99.90;;;;;;2039500;69;27030;-92
2023/10/27 19:14:16;;;;;;;5.63;2.10;;;2.10;99.90;;;;;;1998418;71;25217;-91
2023/10/27 19:17:05;;;;;;;4.97;2.20;;;2.10;99.90;;;;;;1997645;70;25369;-91
2023/10/27 19:19:54;;;;;;;3.10;2.20;;;2.10;99.90;;;;;;2028516;69;25307;-91
2023/10/27 19:22:43;;;;;;;6.20;2.23;;;2.00;99.90;;;;;;2019515;71;25256;-91
2023/10/27 19:25:31;;;;;;;2.60;2.13;;;2.10;99.90;;;;;;2012512;70;25153;-91
2023/10/27 19:28:21;;;;;;;3.53;2.17;;;2.00;99.90;;;;;;2004571;69;25350;-91
2023/10/27 19:31:13;;;;;;;6.00;2.17;;;2.00;99.90;;;;;;2014127;69;25704;-91
2023/10/27 19:34:04;;;;;;;8.87;2.10;;;2.00;99.90;;;;;;2016875;71;25216;-91
2023/10/27 19:36:52;;;;;;;3.13;2.00;;;2.00;99.90;;;;;;2011284;70;25641;-91
2023/10/27 19:42:26;;;;;;;3.13;2.20;;;1.90;99.90;;;;;;2013922;69;27129;-92
2023/10/27 19:45:16;;;;;;;3.47;2.00;;;2.10;99.90;;;;;;1971046;72;25158;-92
2023/10/27 19:48:06;;;;;;;2.97;2.10;;;2.00;99.90;;;;;;1976693;72;25207;-92
2023/10/27 19:54:09;;;;;;;4.73;2.00;;;2.00;99.90;;;;;;1933562;73;26344;-91
2023/10/27 19:59:37;;;;;;;2.63;2.10;;;2.00;99.90;;;;;;1935677;72;27056;-92
2023/10/27 20:02:25;;;;;;;2.97;1.90;;;2.00;99.90;;;;;;1909988;73;25686;-92
2023/10/27 20:05:16;;;;;;;4.13;2.37;;;2.10;99.90;;;;;;1866359;76;25363;-92
2023/10/27 20:08:05;;;;;;;4.20;2.30;;;2.10;99.90;;;;;;1839021;76;25314;-92
2023/10/27 20:10:53;;;;;;;3.23;2.13;;;2.00;99.90;;;;;;1831132;78;25263;-92
2023/10/27 20:13:43;;;;;;;4.03;2.20;;;2.00;99.90;;;;;;1845461;76;25214;-92
2023/10/27 20:16:33;;;;;;;5.20;2.20;;;2.00;99.90;;;;;;1853272;76;25250;-90
2023/10/27 20:19:22;;;;;;;3.70;1.90;;;2.00;99.90;;;;;;1841311;76;25712;-90
2023/10/27 20:22:10;;;;;;;2.37;1.90;;;2.00;99.90;;;;;;1910614;73;25146;-92
2023/10/27 20:24:59;;;;;;;2.50;1.87;;;2.10;99.90;;;;;;1908888;73;25639;-92
2023/10/27 20:27:48;;;;;;;3.03;1.93;;;2.00;99.90;;;;;;1913101;73;25346;-92
2023/10/27 20:30:38;;;;;;;2.63;2.20;;;2.00;99.90;;;;;;1870003;76;25473;-92
2023/10/27 20:36:49;;;;;;;2.27;2.00;;;2.00;99.90;;;;;;1976320;71;26961;-92
2023/10/27 20:39:39;;;;;;;5.60;2.10;;;2.00;99.90;;;;;;2015876;68;25136;-92
2023/10/27 20:42:32;;;;;;;3.93;2.10;;;2.00;99.90;;;;;;2035330;69;25662;-92
2023/10/27 20:45:21;;;;;;;4.40;2.07;;;2.00;99.90;;;;;;2055899;69;25239;-92
2023/10/27 20:51:23;;;;;;;3.10;2.47;;;2.00;99.90;;;;;;1962224;71;27154;-89
2023/10/27 20:54:12;;;;;;;3.20;2.03;;;2.10;99.90;;;;;;1981647;70;26088;-92
2023/10/27 21:00:17;;;;;;;3.20;2.17;;;2.10;99.90;;;;;;1978557;71;26400;-90
2023/10/27 21:06:46;;;;;;;2.90;1.90;;;2.10;99.90;;;;;;2026888;70;26350;-92
2023/10/27 21:09:35;;;;;;;2.53;2.17;;;2.10;99.90;;;;;;1901867;74;25202;-91
2023/10/27 21:12:23;;;;;;;3.20;2.00;;;2.20;99.90;;;;;;1905233;75;25294;-89
2023/10/27 21:15:12;;;;;;;5.93;2.03;;;2.20;99.90;;;;;;1898685;75;25158;-91
2023/10/27 21:22:49;;;;;;;4.53;2.30;;;2.10;99.90;;;;;;1980870;71;26199;-90
2023/10/27 21:28:20;;;;;;;1.80;1.70;;;2.20;99.90;;;;;;1929062;72;27140;-89
2023/10/27 21:31:08;;;;;;;3.90;1.93;;;2.30;99.90;;;;;;1909818;75;25169;-90
2023/10/27 21:33:56;;;;;;;3.53;2.03;;;2.30;99.90;;;;;;1871236;75;25616;-91
2023/10/27 21:36:45;;;;;;;2.40;2.00;;;2.30;99.90;;;;;;1843118;76;25262;-90
2023/10/27 21:39:34;;;;;;;2.73;2.10;;;2.20;99.90;;;;;;1846368;76;25290;-90
2023/10/27 21:45:16;;;;;;;4.87;2.10;;;2.20;99.90;;;;;;1947873;72;27564;-90
2023/10/27 21:48:05;;;;;;;6.80;2.23;;;2.30;99.90;;;;;;1935650;73;25296;-90
2023/10/27 21:51:03;;;;;;;4.47;2.03;;;2.20;99.90;;;;;;1925540;73;25259;-90
2023/10/27 21:53:51;;;;;;;6.00;2.43;;;2.30;99.90;;;;;;1930503;73;25201;-90
2023/10/27 21:56:39;;;;;;;4.23;2.03;;;2.30;99.90;;;;;;1925358;73;25356;-91
2023/10/27 21:59:28;;;;;;;3.47;2.20;;;2.20;99.90;;;;;;1932176;73;25726;-90
2023/10/27 22:02:17;;;;;;;2.83;1.87;;;2.30;99.90;;;;;;1928176;73;25269;-91